Time;durP1;ratioP1;P1;durP2;ratioP2;P2;SDS_P1;SDS_P2;PMS_P1;PMS_P2;Temp;Humidity;BMP_temperature;BMP_pressure;BME280_temperature;BME280_humidity;BME280_pressure;Samples;Min_cycle;Max_cycle;Signal;HPM_P1;HPM_P2
2021/06/03 00:00:15;;;;;;;4.35;2.50;;;;;;;;;;3587208;40;20050;-60
2021/06/03 00:02:43;;;;;;;4.65;2.65;;;;;;;;;;3576770;40;20033;-60
2021/06/03 00:05:09;;;;;;;3.70;2.60;;;;;;;;;;3586684;40;20477;-58
2021/06/03 00:07:34;;;;;;;4.25;2.42;;;;;;;;;;3586401;40;20376;-60
2021/06/03 00:10:00;;;;;;;6.97;2.47;;;;;;;;;;3586835;40;20363;-60
2021/06/03 00:12:25;;;;;;;4.85;2.42;;;;;;;;;;3586043;40;20070;-60
2021/06/03 00:14:51;;;;;;;3.40;2.20;;;;;;;;;;3586390;40;20356;-60
2021/06/03 00:17:16;;;;;;;5.65;2.63;;;;;;;;;;3586336;40;20037;-60
2021/06/03 00:19:41;;;;;;;4.72;2.30;;;;;;;;;;3585360;40;20036;-60
2021/06/03 00:22:07;;;;;;;6.10;2.63;;;;;;;;;;3586440;40;20119;-57
2021/06/03 00:24:32;;;;;;;5.60;3.08;;;;;;;;;;3586130;40;20048;-57
2021/06/03 00:26:58;;;;;;;4.25;2.75;;;;;;;;;;3585892;40;20032;-58
2021/06/03 00:29:23;;;;;;;4.05;2.70;;;;;;;;;;3576029;40;20052;-58
2021/06/03 00:31:49;;;;;;;4.88;2.60;;;;;;;;;;3586311;40;20033;-58
2021/06/03 00:34:14;;;;;;;4.45;2.78;;;;;;;;;;3583411;40;20048;-58
2021/06/03 00:36:39;;;;;;;5.10;3.05;;;;;;;;;;3584782;40;20036;-58
2021/06/03 00:39:06;;;;;;;4.95;2.95;;;;;;;;;;3585841;40;20060;-58
2021/06/03 00:41:31;;;;;;;4.82;3.05;;;;;;;;;;3585989;40;20044;-58
2021/06/03 00:43:59;;;;;;;7.22;2.83;;;;;;;;;;3586083;40;20539;-58
2021/06/03 00:46:24;;;;;;;6.00;3.58;;;;;;;;;;3584192;40;20080;-59
2021/06/03 00:48:50;;;;;;;5.80;2.78;;;;;;;;;;3587247;40;20244;-59
2021/06/03 00:51:15;;;;;;;5.53;3.38;;;;;;;;;;3587225;40;20364;-59
2021/06/03 00:53:43;;;;;;;4.75;3.22;;;;;;;;;;3585876;40;20068;-59
2021/06/03 00:56:09;;;;;;;4.22;2.92;;;;;;;;;;3585212;40;20149;-58
2021/06/03 00:58:35;;;;;;;4.18;3.00;;;;;;;;;;3586910;40;20061;-58
2021/06/03 01:01:00;;;;;;;4.70;3.70;;;;;;;;;;3588013;40;20299;-59
2021/06/03 01:03:27;;;;;;;7.25;3.90;;;;;;;;;;3585627;40;20067;-58
2021/06/03 01:05:58;;;;;;;6.47;3.70;;;;;;;;;;3584704;40;20037;-59
2021/06/03 01:08:26;;;;;;;4.90;3.55;;;;;;;;;;3587665;40;20033;-58
2021/06/03 01:10:58;;;;;;;6.85;3.25;;;;;;;;;;3588736;40;20068;-58
2021/06/03 01:13:46;;;;;;;5.00;3.35;;;;;;;;;;3586118;40;20028;-59
2021/06/03 01:16:15;;;;;;;5.30;3.25;;;;;;;;;;3587659;40;20036;-58
2021/06/03 01:18:42;;;;;;;7.03;3.42;;;;;;;;;;3587305;40;20146;-58
2021/06/03 01:21:13;;;;;;;6.80;3.40;;;;;;;;;;3579907;40;20394;-59
2021/06/03 01:23:43;;;;;;;4.30;3.05;;;;;;;;;;3587676;40;20052;-59
2021/06/03 01:26:09;;;;;;;5.50;2.72;;;;;;;;;;3586596;40;20056;-59
2021/06/03 01:28:35;;;;;;;7.57;3.00;;;;;;;;;;3587668;40;20040;-59
2021/06/03 01:31:02;;;;;;;5.95;3.10;;;;;;;;;;3587352;40;20048;-59
2021/06/03 01:33:32;;;;;;;3.95;2.65;;;;;;;;;;3586919;40;20055;-59
2021/06/03 01:36:02;;;;;;;10.60;2.80;;;;;;;;;;3587403;40;20036;-59
2021/06/03 01:38:31;;;;;;;6.20;2.95;;;;;;;;;;3587393;40;20044;-59
2021/06/03 01:40:58;;;;;;;4.65;3.10;;;;;;;;;;3587532;40;20443;-59
2021/06/03 01:43:26;;;;;;;11.27;3.13;;;;;;;;;;3586256;40;20036;-59
2021/06/03 01:45:53;;;;;;;4.63;3.10;;;;;;;;;;3587984;40;20043;-58
2021/06/03 01:48:20;;;;;;;5.30;3.20;;;;;;;;;;3588028;40;20319;-58
2021/06/03 01:50:48;;;;;;;5.78;3.15;;;;;;;;;;3587886;40;20028;-58
2021/06/03 01:53:14;;;;;;;8.10;3.20;;;;;;;;;;3587599;40;20036;-58
2021/06/03 01:55:40;;;;;;;4.00;3.28;;;;;;;;;;3587459;40;20048;-58
2021/06/03 01:58:06;;;;;;;4.90;3.20;;;;;;;;;;3586966;40;20136;-58
2021/06/03 02:00:32;;;;;;;4.22;3.10;;;;;;;;;;3587166;40;20447;-58
2021/06/03 02:02:58;;;;;;;4.82;3.47;;;;;;;;;;3588743;40;20034;-59
2021/06/03 02:05:24;;;;;;;6.45;3.50;;;;;;;;;;3585335;40;20376;-59
2021/06/03 02:07:49;;;;;;;5.88;4.00;;;;;;;;;;3587534;40;20033;-59
2021/06/03 02:10:17;;;;;;;6.05;3.80;;;;;;;;;;3587852;40;20047;-59
2021/06/03 02:13:15;;;;;;;5.72;4.07;;;;;;;;;;3587672;40;20036;-59
2021/06/03 02:15:56;;;;;;;5.53;3.97;;;;;;;;;;3573892;40;20086;-59
2021/06/03 02:18:29;;;;;;;4.60;3.65;;;;;;;;;;3586075;40;20368;-59
2021/06/03 02:20:56;;;;;;;6.15;4.18;;;;;;;;;;3586988;40;20032;-58
2021/06/03 02:23:24;;;;;;;7.40;3.85;;;;;;;;;;3576782;40;20044;-59
2021/06/03 02:25:50;;;;;;;7.65;4.22;;;;;;;;;;3584821;40;20029;-58
2021/06/03 02:28:15;;;;;;;5.90;3.38;;;;;;;;;;3586899;40;20071;-58
2021/06/03 02:30:41;;;;;;;4.22;3.55;;;;;;;;;;3587333;40;20118;-58
2021/06/03 02:33:07;;;;;;;6.45;4.05;;;;;;;;;;3589376;40;20036;-59
2021/06/03 02:35:32;;;;;;;5.43;3.55;;;;;;;;;;3585037;40;20072;-59
2021/06/03 02:37:58;;;;;;;6.70;3.97;;;;;;;;;;3587620;40;20270;-59
2021/06/03 02:40:29;;;;;;;6.65;3.83;;;;;;;;;;3577724;40;20052;-59
2021/06/03 02:42:55;;;;;;;5.20;4.22;;;;;;;;;;3585469;40;20053;-59
2021/06/03 02:45:27;;;;;;;7.80;4.53;;;;;;;;;;3586506;40;20072;-59
2021/06/03 02:47:54;;;;;;;7.38;5.35;;;;;;;;;;3586760;40;20021;-59
2021/06/03 02:50:21;;;;;;;9.65;4.53;;;;;;;;;;3587386;40;20261;-59
2021/06/03 02:52:46;;;;;;;6.63;5.32;;;;;;;;;;3587102;40;20312;-59
2021/06/03 02:55:16;;;;;;;9.60;5.20;;;;;;;;;;3587030;40;20037;-59
2021/06/03 02:57:42;;;;;;;7.18;4.68;;;;;;;;;;3586798;40;20032;-59
2021/06/03 03:00:12;;;;;;;5.80;4.30;;;;;;;;;;3586659;40;20437;-60
2021/06/03 03:02:37;;;;;;;9.65;4.47;;;;;;;;;;3587031;40;20028;-59
2021/06/03 03:05:04;;;;;;;7.43;4.38;;;;;;;;;;3587365;40;20056;-59
2021/06/03 03:07:31;;;;;;;5.75;3.95;;;;;;;;;;3586700;40;20120;-59
2021/06/03 03:09:57;;;;;;;6.82;4.35;;;;;;;;;;3586283;40;20069;-59
2021/06/03 03:12:22;;;;;;;6.95;4.53;;;;;;;;;;3586999;40;20059;-60
2021/06/03 03:14:48;;;;;;;5.90;3.42;;;;;;;;;;3586475;40;20033;-59
2021/06/03 03:17:13;;;;;;;6.22;4.78;;;;;;;;;;3579468;40;20044;-59
2021/06/03 03:19:39;;;;;;;8.82;6.57;;;;;;;;;;3587049;40;20134;-59
2021/06/03 03:22:04;;;;;;;5.13;3.92;;;;;;;;;;3587308;40;20105;-59
2021/06/03 03:24:29;;;;;;;5.88;4.00;;;;;;;;;;3586347;40;20041;-59
2021/06/03 03:26:55;;;;;;;6.05;3.85;;;;;;;;;;3587529;40;20043;-59
2021/06/03 03:29:20;;;;;;;5.15;3.58;;;;;;;;;;3586766;40;20377;-59
2021/06/03 03:31:46;;;;;;;5.53;3.42;;;;;;;;;;3586608;40;20028;-59
2021/06/03 03:34:11;;;;;;;4.90;3.42;;;;;;;;;;3579374;40;20044;-59
2021/06/03 03:36:37;;;;;;;5.78;3.53;;;;;;;;;;3586236;40;20031;-59
2021/06/03 03:39:04;;;;;;;5.60;3.63;;;;;;;;;;3586510;40;20065;-59
2021/06/03 03:41:31;;;;;;;6.43;3.90;;;;;;;;;;3588552;40;20071;-59
2021/06/03 03:43:57;;;;;;;6.13;4.07;;;;;;;;;;3585200;40;20033;-59
2021/06/03 03:46:22;;;;;;;5.88;3.72;;;;;;;;;;3586196;40;20063;-59
2021/06/03 03:48:48;;;;;;;7.80;4.13;;;;;;;;;;3577820;40;20052;-59
2021/06/03 03:51:14;;;;;;;5.68;3.78;;;;;;;;;;3586985;40;20080;-59
2021/06/03 03:53:41;;;;;;;4.95;3.58;;;;;;;;;;3584956;40;20370;-59
2021/06/03 03:56:07;;;;;;;4.90;3.67;;;;;;;;;;3585688;40;20272;-59
2021/06/03 03:58:36;;;;;;;5.05;3.80;;;;;;;;;;3586201;40;20025;-59
2021/06/03 04:01:03;;;;;;;5.20;3.97;;;;;;;;;;3587000;40;20326;-59
2021/06/03 04:03:28;;;;;;;4.93;3.88;;;;;;;;;;3584630;40;20031;-59
2021/06/03 04:05:53;;;;;;;5.47;3.55;;;;;;;;;;3584636;40;20025;-59
2021/06/03 04:08:19;;;;;;;4.95;3.70;;;;;;;;;;3585904;40;20029;-59
2021/06/03 04:10:44;;;;;;;5.63;4.10;;;;;;;;;;3586245;40;20052;-58
2021/06/03 04:13:10;;;;;;;8.60;3.67;;;;;;;;;;3583142;40;20036;-58
2021/06/03 04:15:35;;;;;;;7.43;3.70;;;;;;;;;;3584447;40;20021;-59
2021/06/03 04:18:00;;;;;;;6.82;4.43;;;;;;;;;;3586988;40;20032;-59
2021/06/03 04:20:26;;;;;;;5.25;4.18;;;;;;;;;;3586484;40;20044;-58
2021/06/03 04:22:51;;;;;;;5.97;4.00;;;;;;;;;;3586896;40;20032;-59
2021/06/03 04:25:17;;;;;;;6.78;3.97;;;;;;;;;;3587653;40;20047;-58
2021/06/03 04:27:43;;;;;;;5.22;3.70;;;;;;;;;;3587766;40;20040;-58
2021/06/03 04:30:12;;;;;;;8.07;4.15;;;;;;;;;;3588577;40;20060;-59
2021/06/03 04:32:38;;;;;;;6.13;4.05;;;;;;;;;;3579562;40;20044;-58
2021/06/03 04:35:05;;;;;;;6.05;3.90;;;;;;;;;;3586275;40;20065;-58
2021/06/03 04:37:30;;;;;;;9.10;4.10;;;;;;;;;;3587848;40;20044;-58
2021/06/03 04:39:56;;;;;;;5.22;3.85;;;;;;;;;;3587732;40;20064;-59
2021/06/03 04:42:21;;;;;;;5.72;3.42;;;;;;;;;;3587076;40;20060;-59
2021/06/03 04:44:47;;;;;;;5.18;3.83;;;;;;;;;;3587412;40;20061;-58
2021/06/03 04:47:12;;;;;;;5.45;3.88;;;;;;;;;;3587779;40;20041;-58
2021/06/03 04:49:38;;;;;;;6.13;3.53;;;;;;;;;;3589047;40;20052;-59
2021/06/03 04:54:48;;;;;;;5.88;4.35;;;;;;;;;;3587284;40;20362;-59
2021/06/03 04:57:13;;;;;;;5.88;4.40;;;;;;;;;;3587094;40;20032;-59
2021/06/03 04:59:38;;;;;;;8.73;4.40;;;;;;;;;;3586256;40;20044;-59
2021/06/03 05:02:04;;;;;;;8.20;4.30;;;;;;;;;;3587400;40;20104;-59
2021/06/03 05:04:29;;;;;;;8.35;4.43;;;;;;;;;;3586274;40;20392;-59
2021/06/03 05:06:55;;;;;;;8.88;4.10;;;;;;;;;;3586240;40;20106;-59
2021/06/03 05:09:20;;;;;;;6.25;4.55;;;;;;;;;;3587399;40;20265;-59
2021/06/03 05:11:45;;;;;;;5.72;4.13;;;;;;;;;;3588790;40;20040;-59
2021/06/03 05:14:11;;;;;;;5.22;4.00;;;;;;;;;;3586155;40;20047;-59
2021/06/03 05:16:36;;;;;;;9.05;4.70;;;;;;;;;;3586588;40;20036;-59
2021/06/03 05:19:02;;;;;;;7.43;3.92;;;;;;;;;;3589114;40;20043;-59
2021/06/03 05:21:27;;;;;;;7.53;3.80;;;;;;;;;;3587732;40;20064;-59
2021/06/03 05:23:52;;;;;;;4.90;3.60;;;;;;;;;;3586840;40;20033;-59
2021/06/03 05:26:18;;;;;;;5.75;3.60;;;;;;;;;;3584741;40;20040;-59
2021/06/03 05:28:43;;;;;;;5.78;3.80;;;;;;;;;;3589052;40;20039;-60
2021/06/03 05:31:09;;;;;;;6.10;3.78;;;;;;;;;;3579470;40;20125;-60
2021/06/03 05:33:34;;;;;;;5.00;3.53;;;;;;;;;;3585693;40;20063;-60
2021/06/03 05:35:59;;;;;;;6.07;3.13;;;;;;;;;;3586031;40;20043;-60
2021/06/03 05:38:25;;;;;;;5.00;3.22;;;;;;;;;;3588259;40;20040;-60
2021/06/03 05:40:50;;;;;;;5.75;3.25;;;;;;;;;;3586030;40;20576;-59
2021/06/03 05:43:15;;;;;;;4.93;3.25;;;;;;;;;;3585641;40;20040;-59
2021/06/03 05:45:41;;;;;;;5.00;3.40;;;;;;;;;;3586234;40;20061;-59
2021/06/03 05:48:07;;;;;;;5.80;3.97;;;;;;;;;;3587544;40;20040;-59
2021/06/03 05:50:32;;;;;;;5.82;4.05;;;;;;;;;;3589001;40;20035;-59
2021/06/03 05:52:58;;;;;;;5.50;3.88;;;;;;;;;;3589064;40;20361;-59
2021/06/03 05:55:23;;;;;;;6.15;3.70;;;;;;;;;;3587029;40;20032;-59
2021/06/03 05:57:50;;;;;;;4.95;3.38;;;;;;;;;;3588586;40;20371;-59
2021/06/03 06:00:19;;;;;;;5.00;3.67;;;;;;;;;;3578282;40;20562;-59
2021/06/03 06:08:02;;;;;;;6.18;3.67;;;;;;;;;;3586891;40;20044;-59
2021/06/03 06:10:28;;;;;;;4.93;3.47;;;;;;;;;;3587380;40;20370;-59
2021/06/03 06:12:53;;;;;;;10.32;4.00;;;;;;;;;;3587667;40;20360;-59
2021/06/03 06:15:19;;;;;;;11.90;3.72;;;;;;;;;;3588313;40;20106;-59
2021/06/03 06:17:45;;;;;;;6.93;3.88;;;;;;;;;;3588367;40;20036;-59
2021/06/03 06:20:11;;;;;;;7.72;4.32;;;;;;;;;;3587247;40;20288;-59
2021/06/03 06:22:37;;;;;;;8.02;3.90;;;;;;;;;;3588146;40;20041;-59
2021/06/03 06:25:04;;;;;;;5.57;3.83;;;;;;;;;;3587971;40;20372;-59
2021/06/03 06:27:29;;;;;;;5.25;3.67;;;;;;;;;;3586054;40;20032;-59
2021/06/03 06:29:55;;;;;;;8.30;4.15;;;;;;;;;;3588125;40;20052;-60
2021/06/03 06:32:20;;;;;;;7.30;3.83;;;;;;;;;;3587732;40;20063;-59
2021/06/03 06:34:45;;;;;;;6.30;3.92;;;;;;;;;;3586618;40;20055;-60
2021/06/03 06:37:11;;;;;;;4.82;3.75;;;;;;;;;;3586976;40;20438;-60
2021/06/03 06:39:37;;;;;;;5.05;3.88;;;;;;;;;;3579255;40;20125;-60
2021/06/03 06:42:03;;;;;;;5.95;3.70;;;;;;;;;;3587280;40;20059;-60
2021/06/03 06:44:29;;;;;;;5.30;3.60;;;;;;;;;;3586191;40;20106;-60
2021/06/03 06:46:54;;;;;;;4.25;3.28;;;;;;;;;;3587010;40;20045;-59
2021/06/03 06:49:20;;;;;;;8.55;3.72;;;;;;;;;;3587319;40;20056;-60
2021/06/03 06:51:45;;;;;;;4.30;3.38;;;;;;;;;;3588282;40;20060;-60
2021/06/03 06:54:11;;;;;;;8.18;3.25;;;;;;;;;;3586339;40;20043;-59
2021/06/03 06:56:36;;;;;;;4.97;3.58;;;;;;;;;;3587104;40;20404;-59
2021/06/03 06:59:02;;;;;;;8.57;3.70;;;;;;;;;;3587830;40;20063;-60
2021/06/03 07:01:27;;;;;;;7.72;3.50;;;;;;;;;;3586706;39;20045;-59
2021/06/03 07:03:52;;;;;;;6.85;3.38;;;;;;;;;;3584657;40;20043;-60
2021/06/03 07:06:18;;;;;;;5.38;3.53;;;;;;;;;;3587877;40;20040;-60
2021/06/03 07:08:43;;;;;;;11.40;5.72;;;;;;;;;;3586539;40;20044;-60
2021/06/03 07:11:09;;;;;;;5.03;3.50;;;;;;;;;;3586141;40;20036;-59
2021/06/03 07:13:34;;;;;;;6.03;3.30;;;;;;;;;;3585604;40;20032;-60
2021/06/03 07:15:59;;;;;;;3.97;2.72;;;;;;;;;;3587068;40;20036;-60
2021/06/03 07:18:25;;;;;;;5.80;3.38;;;;;;;;;;3586652;40;20059;-60
2021/06/03 07:20:50;;;;;;;6.30;3.60;;;;;;;;;;3587488;40;20541;-58
2021/06/03 07:23:16;;;;;;;9.45;3.92;;;;;;;;;;3585458;40;20114;-58
2021/06/03 07:25:41;;;;;;;6.03;3.25;;;;;;;;;;3584076;40;20291;-58
2021/06/03 07:28:08;;;;;;;5.32;3.60;;;;;;;;;;3586259;40;20113;-59
2021/06/03 07:30:34;;;;;;;5.07;3.17;;;;;;;;;;3586851;40;20043;-59
2021/06/03 07:33:00;;;;;;;5.22;3.95;;;;;;;;;;3579298;40;20058;-59
2021/06/03 07:35:30;;;;;;;7.97;3.85;;;;;;;;;;3585802;40;20368;-59
2021/06/03 07:37:57;;;;;;;8.35;3.70;;;;;;;;;;3586249;40;20040;-59
2021/06/03 07:40:28;;;;;;;6.03;4.13;;;;;;;;;;3585908;40;20361;-59
2021/06/03 07:42:53;;;;;;;5.20;4.07;;;;;;;;;;3585408;40;20062;-59
2021/06/03 07:45:22;;;;;;;11.77;3.63;;;;;;;;;;3585261;40;20368;-59
2021/06/03 07:47:49;;;;;;;6.05;4.28;;;;;;;;;;3584259;40;20032;-59
2021/06/03 07:50:14;;;;;;;5.30;4.03;;;;;;;;;;3586547;40;20024;-58
2021/06/03 07:52:41;;;;;;;6.57;3.70;;;;;;;;;;3578871;40;20265;-58
2021/06/03 07:55:09;;;;;;;6.07;4.00;;;;;;;;;;3586318;40;20504;-59
2021/06/03 07:57:35;;;;;;;4.50;3.55;;;;;;;;;;3585396;40;20029;-58
2021/06/03 08:00:02;;;;;;;5.40;3.80;;;;;;;;;;3587172;40;20340;-58
2021/06/03 08:02:27;;;;;;;6.30;3.20;;;;;;;;;;3586620;40;20041;-59
2021/06/03 08:04:53;;;;;;;6.90;3.75;;;;;;;;;;3578341;40;20035;-59
2021/06/03 08:07:18;;;;;;;6.57;3.60;;;;;;;;;;3586966;40;20048;-59
2021/06/03 08:09:45;;;;;;;6.05;3.75;;;;;;;;;;3586943;40;20032;-59
2021/06/03 08:12:11;;;;;;;5.25;3.88;;;;;;;;;;3587155;40;20356;-60
2021/06/03 08:14:37;;;;;;;5.53;3.72;;;;;;;;;;3585229;40;20049;-59
2021/06/03 08:17:03;;;;;;;6.43;3.70;;;;;;;;;;3586207;40;20076;-59
2021/06/03 08:19:28;;;;;;;6.10;3.25;;;;;;;;;;3587612;40;20044;-59
2021/06/03 08:21:54;;;;;;;8.30;3.30;;;;;;;;;;3588331;40;20270;-59
2021/06/03 08:24:19;;;;;;;9.20;5.70;;;;;;;;;;3584806;40;20383;-59
2021/06/03 08:26:50;;;;;;;4.47;3.53;;;;;;;;;;3586601;40;20118;-59
2021/06/03 08:29:15;;;;;;;5.75;4.00;;;;;;;;;;3587301;40;20094;-59
2021/06/03 08:31:41;;;;;;;7.30;4.20;;;;;;;;;;3585136;40;20376;-60
2021/06/03 08:34:06;;;;;;;6.70;3.50;;;;;;;;;;3583366;40;20114;-59
2021/06/03 08:36:32;;;;;;;4.63;3.15;;;;;;;;;;3586932;40;20045;-59
2021/06/03 08:38:57;;;;;;;4.60;3.58;;;;;;;;;;3586178;40;20372;-59
2021/06/03 08:41:24;;;;;;;5.03;3.35;;;;;;;;;;3585205;40;20036;-60
2021/06/03 08:43:49;;;;;;;9.98;4.35;;;;;;;;;;3585487;40;20355;-59
2021/06/03 08:46:15;;;;;;;4.53;3.38;;;;;;;;;;3578055;40;20097;-60
2021/06/03 08:48:41;;;;;;;7.50;3.50;;;;;;;;;;3586352;40;20053;-59
2021/06/03 08:51:07;;;;;;;5.13;3.40;;;;;;;;;;3584716;40;20388;-59
2021/06/03 08:53:33;;;;;;;4.50;2.83;;;;;;;;;;3586206;40;20035;-59
2021/06/03 08:56:19;;;;;;;6.97;3.63;;;;;;;;;;3587519;40;20075;-59
2021/06/03 08:58:48;;;;;;;7.18;3.90;;;;;;;;;;3587476;40;20046;-59
2021/06/03 09:01:15;;;;;;;6.68;3.30;;;;;;;;;;3586795;40;20077;-59
2021/06/03 09:03:41;;;;;;;10.73;4.05;;;;;;;;;;3584863;40;20651;-59
2021/06/03 09:06:08;;;;;;;4.50;2.95;;;;;;;;;;3585630;40;20040;-59
2021/06/03 09:08:38;;;;;;;7.50;3.50;;;;;;;;;;3586541;40;20069;-59
2021/06/03 09:11:14;;;;;;;5.55;3.05;;;;;;;;;;3588746;40;20032;-59
2021/06/03 09:13:47;;;;;;;4.13;2.90;;;;;;;;;;3587561;40;20033;-59
2021/06/03 09:16:15;;;;;;;5.95;3.25;;;;;;;;;;3586997;40;20135;-59
2021/06/03 09:18:44;;;;;;;4.65;2.75;;;;;;;;;;3579363;40;20036;-59
2021/06/03 09:21:20;;;;;;;4.07;2.70;;;;;;;;;;3585448;40;20040;-59
2021/06/03 09:23:56;;;;;;;4.13;2.50;;;;;;;;;;3585385;40;20048;-59
2021/06/03 09:26:24;;;;;;;5.15;2.70;;;;;;;;;;3587397;40;20072;-59
2021/06/03 09:28:50;;;;;;;4.40;2.72;;;;;;;;;;3588209;40;20505;-59
2021/06/03 09:31:26;;;;;;;4.90;2.55;;;;;;;;;;3587024;40;20426;-60
2021/06/03 09:33:54;;;;;;;5.85;2.67;;;;;;;;;;3585617;40;20453;-60
2021/06/03 09:36:40;;;;;;;3.97;3.05;;;;;;;;;;3588318;40;20037;-59
2021/06/03 09:39:05;;;;;;;4.18;2.70;;;;;;;;;;3580909;40;20071;-59
2021/06/03 09:41:32;;;;;;;4.65;2.60;;;;;;;;;;3588074;40;20462;-59
2021/06/03 09:44:11;;;;;;;4.90;2.50;;;;;;;;;;3586644;40;20037;-59
2021/06/03 09:46:43;;;;;;;3.67;2.30;;;;;;;;;;3587179;40;20044;-59
2021/06/03 09:49:24;;;;;;;5.00;3.00;;;;;;;;;;3587000;40;20129;-59
2021/06/03 09:51:52;;;;;;;5.22;2.72;;;;;;;;;;3587990;40;20338;-59
2021/06/03 09:54:20;;;;;;;5.18;2.55;;;;;;;;;;3586813;40;20037;-59
2021/06/03 09:56:51;;;;;;;4.32;2.13;;;;;;;;;;3587492;40;20185;-59
2021/06/03 09:59:20;;;;;;;;;;;;;;;;;;3587668;40;20096;-59
2021/06/03 10:01:59;;;;;;;3.35;2.20;;;;;;;;;;3586328;40;20446;-59
2021/06/03 10:04:37;;;;;;;5.72;2.45;;;;;;;;;;3579456;40;20025;-59
2021/06/03 10:07:08;;;;;;;3.90;2.45;;;;;;;;;;3586727;40;20389;-59
2021/06/03 10:09:36;;;;;;;3.85;2.90;;;;;;;;;;3587549;40;20044;-59
2021/06/03 10:12:02;;;;;;;3.50;2.33;;;;;;;;;;3584925;40;20062;-59
2021/06/03 10:14:28;;;;;;;4.72;2.88;;;;;;;;;;3587399;40;20028;-59
2021/06/03 10:16:54;;;;;;;4.65;2.60;;;;;;;;;;3587531;40;20688;-59
2021/06/03 10:19:24;;;;;;;4.32;2.38;;;;;;;;;;3586799;40;20029;-59
2021/06/03 10:22:27;;;;;;;3.65;2.40;;;;;;;;;;3585420;40;20037;-59
2021/06/03 10:25:04;;;;;;;7.88;2.40;;;;;;;;;;3586706;40;20130;-59
2021/06/03 10:27:36;;;;;;;5.72;2.80;;;;;;;;;;3587967;40;20036;-59
2021/06/03 10:30:06;;;;;;;5.07;2.72;;;;;;;;;;3588239;40;20056;-59
2021/06/03 10:32:32;;;;;;;4.05;2.42;;;;;;;;;;3586802;40;20348;-59
2021/06/03 10:34:59;;;;;;;4.80;3.42;;;;;;;;;;3587312;40;20048;-59
2021/06/03 10:37:25;;;;;;;5.35;3.08;;;;;;;;;;3587319;40;20032;-60
2021/06/03 10:39:53;;;;;;;4.30;2.83;;;;;;;;;;3586898;40;20048;-60
2021/06/03 10:42:20;;;;;;;6.82;3.00;;;;;;;;;;3586517;40;20292;-60
2021/06/03 10:44:47;;;;;;;6.22;3.30;;;;;;;;;;3587973;40;20029;-60
2021/06/03 10:47:15;;;;;;;7.05;3.05;;;;;;;;;;3579971;40;20269;-60
2021/06/03 10:49:41;;;;;;;4.85;3.13;;;;;;;;;;3586461;40;20330;-60
2021/06/03 10:52:09;;;;;;;4.88;3.38;;;;;;;;;;3586237;40;20048;-60
2021/06/03 10:54:39;;;;;;;5.30;3.08;;;;;;;;;;3586348;40;20028;-60
2021/06/03 10:57:06;;;;;;;4.13;2.88;;;;;;;;;;3588268;40;20044;-60
2021/06/03 10:59:33;;;;;;;5.00;3.17;;;;;;;;;;3584890;40;20118;-60
2021/06/03 11:02:00;;;;;;;10.15;3.00;;;;;;;;;;3586358;40;20037;-59
2021/06/03 11:04:31;;;;;;;7.72;3.28;;;;;;;;;;3585767;40;20118;-60
2021/06/03 11:06:58;;;;;;;6.22;4.22;;;;;;;;;;3587477;40;20055;-60
2021/06/03 11:09:29;;;;;;;3.33;2.28;;;;;;;;;;3587073;40;20040;-61
2021/06/03 11:12:17;;;;;;;4.70;3.05;;;;;;;;;;3587206;40;20035;-60
2021/06/03 11:14:59;;;;;;;4.00;2.63;;;;;;;;;;3588523;40;20456;-60
2021/06/03 11:17:49;;;;;;;9.65;3.50;;;;;;;;;;3584624;40;20075;-60
2021/06/03 11:20:15;;;;;;;7.93;5.95;;;;;;;;;;3585403;40;20044;-59
2021/06/03 11:22:40;;;;;;;6.40;3.58;;;;;;;;;;3586196;40;21756;-59
2021/06/03 11:25:06;;;;;;;7.00;3.42;;;;;;;;;;3585826;40;20874;-59
2021/06/03 11:27:43;;;;;;;6.95;3.40;;;;;;;;;;3585891;40;20379;-59
2021/06/03 11:30:11;;;;;;;5.22;3.22;;;;;;;;;;3586375;40;20665;-60
2021/06/03 11:32:43;;;;;;;4.57;3.20;;;;;;;;;;3585845;40;20266;-60
2021/06/03 11:35:11;;;;;;;7.78;3.05;;;;;;;;;;3585753;40;20039;-59
2021/06/03 11:37:36;;;;;;;8.50;3.25;;;;;;;;;;3585646;40;20029;-59
2021/06/03 11:40:04;;;;;;;6.13;2.90;;;;;;;;;;3577296;39;20044;-60
2021/06/03 11:42:39;;;;;;;5.00;3.55;;;;;;;;;;3584351;40;20150;-60
2021/06/03 11:45:08;;;;;;;4.40;2.80;;;;;;;;;;3586774;40;20036;-60
2021/06/03 11:47:36;;;;;;;4.10;2.75;;;;;;;;;;3587218;40;20032;-60
2021/06/03 11:50:04;;;;;;;3.95;2.70;;;;;;;;;;3586040;40;20508;-61
2021/06/03 11:52:30;;;;;;;4.85;2.72;;;;;;;;;;3584415;40;20118;-61
2021/06/03 11:54:57;;;;;;;4.32;2.25;;;;;;;;;;3577531;40;20390;-59
2021/06/03 11:57:30;;;;;;;4.03;2.60;;;;;;;;;;3586730;40;20034;-60
2021/06/03 12:00:00;;;;;;;6.82;2.80;;;;;;;;;;3587093;40;20031;-60
2021/06/03 12:02:45;;;;;;;4.03;2.47;;;;;;;;;;3585588;40;20028;-59
2021/06/03 12:05:13;;;;;;;4.75;2.83;;;;;;;;;;3586083;40;20061;-59
2021/06/03 12:07:40;;;;;;;7.68;2.92;;;;;;;;;;3585516;40;20067;-60
2021/06/03 12:10:07;;;;;;;5.30;2.85;;;;;;;;;;3586647;40;20055;-59
2021/06/03 12:12:32;;;;;;;5.72;3.40;;;;;;;;;;3585953;40;20537;-59
2021/06/03 12:14:58;;;;;;;4.35;3.42;;;;;;;;;;3585598;40;20048;-59
2021/06/03 12:17:24;;;;;;;5.50;3.53;;;;;;;;;;3587567;40;20120;-59
2021/06/03 12:19:53;;;;;;;4.50;2.90;;;;;;;;;;3577367;40;20033;-60
2021/06/03 12:22:25;;;;;;;6.88;3.10;;;;;;;;;;3584979;40;20031;-59
2021/06/03 12:24:56;;;;;;;5.30;3.28;;;;;;;;;;3586015;40;20056;-60
2021/06/03 12:27:36;;;;;;;6.18;4.70;;;;;;;;;;3585472;40;20062;-60
2021/06/03 12:30:15;;;;;;;4.95;3.95;;;;;;;;;;3568616;40;20120;-59
2021/06/03 12:33:02;;;;;;;4.65;2.97;;;;;;;;;;3582870;40;20887;-60
2021/06/03 12:35:46;;;;;;;11.45;3.10;;;;;;;;;;3576754;40;20040;-60
2021/06/03 12:38:34;;;;;;;3.72;2.35;;;;;;;;;;3585998;40;20121;-60
2021/06/03 12:41:23;;;;;;;5.78;2.60;;;;;;;;;;3586687;40;20368;-60
2021/06/03 12:43:59;;;;;;;4.35;2.80;;;;;;;;;;3586446;39;20048;-60
2021/06/03 12:46:47;;;;;;;5.20;2.78;;;;;;;;;;3586352;40;20044;-59
2021/06/03 12:49:17;;;;;;;4.38;2.97;;;;;;;;;;3586248;40;20040;-59
2021/06/03 12:52:04;;;;;;;6.30;2.85;;;;;;;;;;3585921;40;20351;-61
2021/06/03 12:54:39;;;;;;;4.95;2.65;;;;;;;;;;3586027;40;20035;-61
2021/06/03 12:57:26;;;;;;;4.90;2.45;;;;;;;;;;3589649;40;20945;-59
2021/06/03 12:59:53;;;;;;;4.32;2.75;;;;;;;;;;3587056;40;20040;-59
2021/06/03 13:02:19;;;;;;;4.85;2.60;;;;;;;;;;3585725;40;20394;-59
2021/06/03 13:04:50;;;;;;;5.05;2.15;;;;;;;;;;3586852;40;20032;-59
2021/06/03 13:07:25;;;;;;;5.30;2.90;;;;;;;;;;3586690;40;20064;-59
2021/06/03 13:09:58;;;;;;;4.78;2.97;;;;;;;;;;3587054;40;20033;-59
2021/06/03 13:12:24;;;;;;;4.20;2.78;;;;;;;;;;3584630;40;20141;-59
2021/06/03 13:14:53;;;;;;;4.88;2.85;;;;;;;;;;3585990;40;20276;-60
2021/06/03 13:17:22;;;;;;;4.00;2.22;;;;;;;;;;3587478;40;20037;-60
2021/06/03 13:19:49;;;;;;;7.40;2.47;;;;;;;;;;3587268;40;20198;-60
2021/06/03 13:22:18;;;;;;;7.28;2.53;;;;;;;;;;3584506;40;20025;-60
2021/06/03 13:24:46;;;;;;;3.20;1.90;;;;;;;;;;3587012;40;20033;-59
2021/06/03 13:27:23;;;;;;;4.78;2.33;;;;;;;;;;3586850;40;20044;-59
2021/06/03 13:29:53;;;;;;;7.45;2.58;;;;;;;;;;3586686;40;20037;-59
2021/06/03 13:32:24;;;;;;;5.03;2.78;;;;;;;;;;3587281;40;20268;-59
2021/06/03 13:34:51;;;;;;;4.32;2.80;;;;;;;;;;3586754;40;20060;-59
2021/06/03 13:37:27;;;;;;;3.88;2.20;;;;;;;;;;3587318;40;20368;-59
2021/06/03 13:39:56;;;;;;;4.57;2.40;;;;;;;;;;3588333;39;20272;-59
2021/06/03 13:42:31;;;;;;;4.95;2.55;;;;;;;;;;3586328;40;20056;-60
2021/06/03 13:45:05;;;;;;;4.97;2.75;;;;;;;;;;3588758;40;20037;-60
2021/06/03 13:47:49;;;;;;;4.38;3.00;;;;;;;;;;3587680;40;20845;-59
2021/06/03 13:50:28;;;;;;;3.78;2.45;;;;;;;;;;3587662;40;20113;-60
2021/06/03 13:53:00;;;;;;;4.40;2.23;;;;;;;;;;3586352;40;20402;-60
2021/06/03 13:55:32;;;;;;;4.22;2.40;;;;;;;;;;3586550;40;20037;-60
2021/06/03 13:57:59;;;;;;;3.97;2.10;;;;;;;;;;3583801;40;20036;-60
2021/06/03 14:00:32;;;;;;;4.00;2.45;;;;;;;;;;3587728;40;20345;-60
2021/06/03 14:03:06;;;;;;;3.65;2.08;;;;;;;;;;3586976;40;20403;-61
2021/06/03 14:05:32;;;;;;;7.57;2.70;;;;;;;;;;3586249;40;20493;-60
2021/06/03 14:08:16;;;;;;;3.30;2.28;;;;;;;;;;3577843;40;20036;-60
2021/06/03 14:11:09;;;;;;;4.88;2.25;;;;;;;;;;3586453;40;20085;-60
2021/06/03 14:13:50;;;;;;;4.00;2.25;;;;;;;;;;3585657;40;20269;-60
2021/06/03 14:16:54;;;;;;;3.72;2.17;;;;;;;;;;3586785;40;20037;-60
2021/06/03 14:19:27;;;;;;;11.55;3.38;;;;;;;;;;3536534;40;20037;-60
2021/06/03 14:21:56;;;;;;;4.32;2.50;;;;;;;;;;3570469;40;20081;-60
2021/06/03 14:24:31;;;;;;;4.97;2.65;;;;;;;;;;3586775;40;20134;-59
2021/06/03 14:27:17;;;;;;;5.00;2.50;;;;;;;;;;3587882;40;20263;-60
2021/06/03 14:30:06;;;;;;;4.45;2.63;;;;;;;;;;3586080;40;20052;-60
2021/06/03 14:32:34;;;;;;;3.92;2.45;;;;;;;;;;3576877;40;20033;-60
2021/06/03 14:35:18;;;;;;;4.28;3.00;;;;;;;;;;3578122;40;20028;-60
2021/06/03 14:37:47;;;;;;;5.75;2.47;;;;;;;;;;3586923;40;20089;-59
2021/06/03 14:40:33;;;;;;;5.18;2.92;;;;;;;;;;3586299;40;20060;-60
2021/06/03 14:43:22;;;;;;;7.70;2.85;;;;;;;;;;3584364;40;20381;-60
2021/06/03 14:45:58;;;;;;;6.43;2.65;;;;;;;;;;3587505;40;20036;-59
2021/06/03 14:48:28;;;;;;;4.03;2.67;;;;;;;;;;3587055;40;20145;-59
2021/06/03 14:50:56;;;;;;;4.90;2.42;;;;;;;;;;3585070;40;20376;-60
2021/06/03 14:53:24;;;;;;;4.55;2.50;;;;;;;;;;3577411;40;20244;-59
2021/06/03 14:55:53;;;;;;;8.05;2.50;;;;;;;;;;3586730;40;20028;-59
2021/06/03 14:58:19;;;;;;;4.22;2.70;;;;;;;;;;3587560;40;20040;-60
2021/06/03 15:00:48;;;;;;;3.78;2.90;;;;;;;;;;3584199;40;20040;-59